sensor_id;sensor_type;location;lat;lon;timestamp;P1;P2;P0
47079;PMS5003;33067;49.296;14.470;2023-12-28T00:01:07;40;38;
47079;PMS5003;33067;49.296;14.470;2023-12-28T00:03:32;27;27;
47079;PMS5003;33067;49.296;14.470;2023-12-28T00:05:58;42;38;
47079;PMS5003;33067;49.296;14.470;2023-12-28T00:08:24;40;38;
47079;PMS5003;33067;49.296;14.470;2023-12-28T00:10:49;87;83;
47079;PMS5003;33067;49.296;14.470;2023-12-28T00:13:15;46;42;
47079;PMS5003;33067;49.296;14.470;2023-12-28T00:15:40;65;61;
47079;PMS5003;33067;49.296;14.470;2023-12-28T00:18:06;53;51;
47079;PMS5003;33067;49.296;14.470;2023-12-28T00:20:31;46;46;
47079;PMS5003;33067;49.296;14.470;2023-12-28T00:22:56;61;59;
47079;PMS5003;33067;49.296;14.470;2023-12-28T00:25:22;42;42;
47079;PMS5003;33067;49.296;14.470;2023-12-28T00:27:47;68;61;
47079;PMS5003;33067;49.296;14.470;2023-12-28T00:30:12;54;49;
47079;PMS5003;33067;49.296;14.470;2023-12-28T00:32:37;79;73;
47079;PMS5003;33067;49.296;14.470;2023-12-28T00:35:03;36;34;
47079;PMS5003;33067;49.296;14.470;2023-12-28T00:37:30;63;61;
47079;PMS5003;33067;49.296;14.470;2023-12-28T00:39:54;69;68;
47079;PMS5003;33067;49.296;14.470;2023-12-28T00:42:20;36;32;
47079;PMS5003;33067;49.296;14.470;2023-12-28T00:44:47;40;38;
47079;PMS5003;33067;49.296;14.470;2023-12-28T00:47:11;35;32;
47079;PMS5003;33067;49.296;14.470;2023-12-28T00:49:37;50;45;
47079;PMS5003;33067;49.296;14.470;2023-12-28T00:52:02;77;72;
47079;PMS5003;33067;49.296;14.470;2023-12-28T00:54:28;52;50;
47079;PMS5003;33067;49.296;14.470;2023-12-28T00:56:53;65;57;
47079;PMS5003;33067;49.296;14.470;2023-12-28T00:59:18;54;54;
47079;PMS5003;33067;49.296;14.470;2023-12-28T01:01:44;71;70;
47079;PMS5003;33067;49.296;14.470;2023-12-28T01:04:09;69;68;
47079;PMS5003;33067;49.296;14.470;2023-12-28T01:06:35;45;45;
47079;PMS5003;33067;49.296;14.470;2023-12-28T01:09:00;52;52;
47079;PMS5003;33067;49.296;14.470;2023-12-28T01:11:25;67;63;
47079;PMS5003;33067;49.296;14.470;2023-12-28T01:13:51;62;57;
47079;PMS5003;33067;49.296;14.470;2023-12-28T01:16:16;61;60;
47079;PMS5003;33067;49.296;14.470;2023-12-28T01:18:42;63;55;
47079;PMS5003;33067;49.296;14.470;2023-12-28T01:21:07;67;65;
47079;PMS5003;33067;49.296;14.470;2023-12-28T01:23:32;50;50;
47079;PMS5003;33067;49.296;14.470;2023-12-28T01:25:58;47;41;
47079;PMS5003;33067;49.296;14.470;2023-12-28T01:28:25;52;45;
47079;PMS5003;33067;49.296;14.470;2023-12-28T01:30:50;65;64;
47079;PMS5003;33067;49.296;14.470;2023-12-28T01:33:15;61;57;
47079;PMS5003;33067;49.296;14.470;2023-12-28T01:35:42;58;57;
47079;PMS5003;33067;49.296;14.470;2023-12-28T01:38:07;39;37;
47079;PMS5003;33067;49.296;14.470;2023-12-28T01:40:31;48;44;
47079;PMS5003;33067;49.296;14.470;2023-12-28T01:42:56;44;43;
47079;PMS5003;33067;49.296;14.470;2023-12-28T01:45:21;51;49;
47079;PMS5003;33067;49.296;14.470;2023-12-28T01:47:47;55;50;
47079;PMS5003;33067;49.296;14.470;2023-12-28T01:50:14;79;69;
47079;PMS5003;33067;49.296;14.470;2023-12-28T01:52:39;80;80;
47079;PMS5003;33067;49.296;14.470;2023-12-28T01:55:05;67;63;
47079;PMS5003;33067;49.296;14.470;2023-12-28T01:57:30;75;74;
47079;PMS5003;33067;49.296;14.470;2023-12-28T01:59:55;54;48;
47079;PMS5003;33067;49.296;14.470;2023-12-28T02:02:21;61;61;
47079;PMS5003;33067;49.296;14.470;2023-12-28T02:04:45;63;55;
47079;PMS5003;33067;49.296;14.470;2023-12-28T02:07:11;67;63;
47079;PMS5003;33067;49.296;14.470;2023-12-28T02:09:36;64;61;
47079;PMS5003;33067;49.296;14.470;2023-12-28T02:12:02;82;78;
47079;PMS5003;33067;49.296;14.470;2023-12-28T02:14:27;71;65;
47079;PMS5003;33067;49.296;14.470;2023-12-28T02:16:54;63;62;
47079;PMS5003;33067;49.296;14.470;2023-12-28T02:19:22;53;51;
47079;PMS5003;33067;49.296;14.470;2023-12-28T02:21:43;49;49;
47079;PMS5003;33067;49.296;14.470;2023-12-28T02:24:09;46;46;
47079;PMS5003;33067;49.296;14.470;2023-12-28T02:26:36;43;40;
47079;PMS5003;33067;49.296;14.470;2023-12-28T02:29:00;92;92;
47079;PMS5003;33067;49.296;14.470;2023-12-28T02:31:28;92;92;
47079;PMS5003;33067;49.296;14.470;2023-12-28T02:33:54;87;85;
47079;PMS5003;33067;49.296;14.470;2023-12-28T02:36:17;102;99;
47079;PMS5003;33067;49.296;14.470;2023-12-28T02:38:42;35;35;
47079;PMS5003;33067;49.296;14.470;2023-12-28T02:41:09;27;27;
47079;PMS5003;33067;49.296;14.470;2023-12-28T02:43:34;22;18;
47079;PMS5003;33067;49.296;14.470;2023-12-28T02:45:58;29;26;
47079;PMS5003;33067;49.296;14.470;2023-12-28T02:48:25;38;33;
47079;PMS5003;33067;49.296;14.470;2023-12-28T02:50:50;32;32;
47079;PMS5003;33067;49.296;14.470;2023-12-28T02:53:17;39;38;
47079;PMS5003;33067;49.296;14.470;2023-12-28T02:55:41;51;42;
47079;PMS5003;33067;49.296;14.470;2023-12-28T02:58:07;34;33;
47079;PMS5003;33067;49.296;14.470;2023-12-28T03:00:33;29;29;
47079;PMS5003;33067;49.296;14.470;2023-12-28T03:02:58;32;27;
47079;PMS5003;33067;49.296;14.470;2023-12-28T03:05:23;31;28;
47079;PMS5003;33067;49.296;14.470;2023-12-28T03:07:48;36;32;
47079;PMS5003;33067;49.296;14.470;2023-12-28T03:12:59;39;34;
47079;PMS5003;33067;49.296;14.470;2023-12-28T03:15:25;42;40;
47079;PMS5003;33067;49.296;14.470;2023-12-28T03:17:50;42;39;
47079;PMS5003;33067;49.296;14.470;2023-12-28T03:20:16;51;48;
47079;PMS5003;33067;49.296;14.470;2023-12-28T03:22:41;43;43;
47079;PMS5003;33067;49.296;14.470;2023-12-28T03:25:06;53;46;
47079;PMS5003;33067;49.296;14.470;2023-12-28T03:27:33;53;43;
47079;PMS5003;33067;49.296;14.470;2023-12-28T03:29:56;54;49;
47079;PMS5003;33067;49.296;14.470;2023-12-28T03:32:22;45;41;
47079;PMS5003;33067;49.296;14.470;2023-12-28T03:34:47;42;37;
47079;PMS5003;33067;49.296;14.470;2023-12-28T03:37:13;39;33;
47079;PMS5003;33067;49.296;14.470;2023-12-28T03:39:38;42;40;
47079;PMS5003;33067;49.296;14.470;2023-12-28T03:42:04;48;45;
47079;PMS5003;33067;49.296;14.470;2023-12-28T03:44:29;65;58;
47079;PMS5003;33067;49.296;14.470;2023-12-28T03:46:54;132;120;
47079;PMS5003;33067;49.296;14.470;2023-12-28T03:49:20;103;88;
47079;PMS5003;33067;49.296;14.470;2023-12-28T03:51:45;82;74;
47079;PMS5003;33067;49.296;14.470;2023-12-28T03:54:11;70;62;
47079;PMS5003;33067;49.296;14.470;2023-12-28T03:56:36;61;53;
47079;PMS5003;33067;49.296;14.470;2023-12-28T03:59:01;57;54;
47079;PMS5003;33067;49.296;14.470;2023-12-28T04:01:26;57;51;
47079;PMS5003;33067;49.296;14.470;2023-12-28T04:03:51;43;40;
47079;PMS5003;33067;49.296;14.470;2023-12-28T04:06:17;45;40;
47079;PMS5003;33067;49.296;14.470;2023-12-28T04:08:42;50;44;
47079;PMS5003;33067;49.296;14.470;2023-12-28T04:11:08;50;45;
47079;PMS5003;33067;49.296;14.470;2023-12-28T04:13:33;49;47;
47079;PMS5003;33067;49.296;14.470;2023-12-28T04:15:59;56;51;
47079;PMS5003;33067;49.296;14.470;2023-12-28T04:18:24;49;44;
47079;PMS5003;33067;49.296;14.470;2023-12-28T04:20:50;48;40;
47079;PMS5003;33067;49.296;14.470;2023-12-28T04:23:17;33;27;
47079;PMS5003;33067;49.296;14.470;2023-12-28T04:25:40;36;35;
47079;PMS5003;33067;49.296;14.470;2023-12-28T04:28:07;45;38;
47079;PMS5003;33067;49.296;14.470;2023-12-28T04:30:31;38;34;
47079;PMS5003;33067;49.296;14.470;2023-12-28T04:32:56;34;33;
47079;PMS5003;33067;49.296;14.470;2023-12-28T04:35:22;54;52;
47079;PMS5003;33067;49.296;14.470;2023-12-28T04:37:49;123;117;
47079;PMS5003;33067;49.296;14.470;2023-12-28T04:40:12;48;42;
47079;PMS5003;33067;49.296;14.470;2023-12-28T04:42:38;32;29;
47079;PMS5003;33067;49.296;14.470;2023-12-28T04:45:03;22;22;
47079;PMS5003;33067;49.296;14.470;2023-12-28T04:47:29;105;100;
47079;PMS5003;33067;49.296;14.470;2023-12-28T04:49:53;78;75;
47079;PMS5003;33067;49.296;14.470;2023-12-28T04:52:19;67;64;
47079;PMS5003;33067;49.296;14.470;2023-12-28T04:54:44;63;60;
47079;PMS5003;33067;49.296;14.470;2023-12-28T04:57:11;70;68;
47079;PMS5003;33067;49.296;14.470;2023-12-28T04:59:39;74;72;
47079;PMS5003;33067;49.296;14.470;2023-12-28T05:02:00;65;62;
47079;PMS5003;33067;49.296;14.470;2023-12-28T05:04:25;47;45;
47079;PMS5003;33067;49.296;14.470;2023-12-28T05:06:50;40;35;
47079;PMS5003;33067;49.296;14.470;2023-12-28T05:09:17;46;41;
47079;PMS5003;33067;49.296;14.470;2023-12-28T05:11:41;34;32;
47079;PMS5003;33067;49.296;14.470;2023-12-28T05:14:08;36;33;
47079;PMS5003;33067;49.296;14.470;2023-12-28T05:16:31;38;32;
47079;PMS5003;33067;49.296;14.470;2023-12-28T05:18:57;34;33;
47079;PMS5003;33067;49.296;14.470;2023-12-28T05:21:24;33;31;
47079;PMS5003;33067;49.296;14.470;2023-12-28T05:23:47;33;29;
47079;PMS5003;33067;49.296;14.470;2023-12-28T05:26:13;37;33;
47079;PMS5003;33067;49.296;14.470;2023-12-28T05:28:40;39;34;
47079;PMS5003;33067;49.296;14.470;2023-12-28T05:31:03;38;34;
47079;PMS5003;33067;49.296;14.470;2023-12-28T05:33:28;39;36;
47079;PMS5003;33067;49.296;14.470;2023-12-28T05:35:53;36;32;
47079;PMS5003;33067;49.296;14.470;2023-12-28T05:38:19;33;30;
47079;PMS5003;33067;49.296;14.470;2023-12-28T05:40:44;37;33;
47079;PMS5003;33067;49.296;14.470;2023-12-28T05:43:09;35;35;
47079;PMS5003;33067;49.296;14.470;2023-12-28T05:45:35;44;37;
47079;PMS5003;33067;49.296;14.470;2023-12-28T05:48:00;36;36;
47079;PMS5003;33067;49.296;14.470;2023-12-28T05:50:26;54;50;
47079;PMS5003;33067;49.296;14.470;2023-12-28T05:52:51;46;41;
47079;PMS5003;33067;49.296;14.470;2023-12-28T05:55:16;38;37;
47079;PMS5003;33067;49.296;14.470;2023-12-28T05:57:42;45;41;
47079;PMS5003;33067;49.296;14.470;2023-12-28T06:00:07;42;41;
47079;PMS5003;33067;49.296;14.470;2023-12-28T06:02:34;49;47;
47079;PMS5003;33067;49.296;14.470;2023-12-28T06:04:58;34;34;
47079;PMS5003;33067;49.296;14.470;2023-12-28T06:07:24;35;34;
47079;PMS5003;33067;49.296;14.470;2023-12-28T06:09:48;36;33;
47079;PMS5003;33067;49.296;14.470;2023-12-28T06:12:15;37;30;
47079;PMS5003;33067;49.296;14.470;2023-12-28T06:14:38;34;30;
47079;PMS5003;33067;49.296;14.470;2023-12-28T06:17:03;34;33;
47079;PMS5003;33067;49.296;14.470;2023-12-28T06:19:28;37;32;
47079;PMS5003;33067;49.296;14.470;2023-12-28T06:21:54;34;34;
47079;PMS5003;33067;49.296;14.470;2023-12-28T06:24:19;39;34;
47079;PMS5003;33067;49.296;14.470;2023-12-28T06:26:45;29;26;
47079;PMS5003;33067;49.296;14.470;2023-12-28T06:29:10;50;44;
47079;PMS5003;33067;49.296;14.470;2023-12-28T06:31:36;47;45;
47079;PMS5003;33067;49.296;14.470;2023-12-28T06:34:01;46;42;
47079;PMS5003;33067;49.296;14.470;2023-12-28T06:36:27;41;36;
47079;PMS5003;33067;49.296;14.470;2023-12-28T06:38:52;37;36;
47079;PMS5003;33067;49.296;14.470;2023-12-28T06:41:19;41;37;
47079;PMS5003;33067;49.296;14.470;2023-12-28T06:43:42;50;39;
47079;PMS5003;33067;49.296;14.470;2023-12-28T06:46:07;49;41;
47079;PMS5003;33067;49.296;14.470;2023-12-28T06:48:33;38;36;
47079;PMS5003;33067;49.296;14.470;2023-12-28T06:50:59;34;31;
47079;PMS5003;33067;49.296;14.470;2023-12-28T06:53:24;41;40;
47079;PMS5003;33067;49.296;14.470;2023-12-28T06:55:49;36;36;
47079;PMS5003;33067;49.296;14.470;2023-12-28T06:58:15;42;38;
47079;PMS5003;33067;49.296;14.470;2023-12-28T07:00:41;39;38;
47079;PMS5003;33067;49.296;14.470;2023-12-28T07:03:06;47;45;
47079;PMS5003;33067;49.296;14.470;2023-12-28T07:05:31;45;41;
47079;PMS5003;33067;49.296;14.470;2023-12-28T07:07:56;40;33;
47079;PMS5003;33067;49.296;14.470;2023-12-28T07:10:23;36;34;
47079;PMS5003;33067;49.296;14.470;2023-12-28T07:12:47;42;37;
47079;PMS5003;33067;49.296;14.470;2023-12-28T07:15:13;32;32;
47079;PMS5003;33067;49.296;14.470;2023-12-28T07:17:39;34;30;
47079;PMS5003;33067;49.296;14.470;2023-12-28T07:20:05;41;37;
47079;PMS5003;33067;49.296;14.470;2023-12-28T07:22:30;46;41;
47079;PMS5003;33067;49.296;14.470;2023-12-28T07:24:56;43;42;
47079;PMS5003;33067;49.296;14.470;2023-12-28T07:27:22;52;50;
47079;PMS5003;33067;49.296;14.470;2023-12-28T07:29:47;68;59;
47079;PMS5003;33067;49.296;14.470;2023-12-28T07:32:12;64;63;
47079;PMS5003;33067;49.296;14.470;2023-12-28T07:34:37;66;62;
47079;PMS5003;33067;49.296;14.470;2023-12-28T07:37:03;69;59;
47079;PMS5003;33067;49.296;14.470;2023-12-28T07:39:29;61;59;
47079;PMS5003;33067;49.296;14.470;2023-12-28T07:41:55;59;56;
47079;PMS5003;33067;49.296;14.470;2023-12-28T07:44:19;42;41;
47079;PMS5003;33067;49.296;14.470;2023-12-28T07:46:45;37;34;
47079;PMS5003;33067;49.296;14.470;2023-12-28T07:49:10;34;34;
47079;PMS5003;33067;49.296;14.470;2023-12-28T07:51:36;48;42;
47079;PMS5003;33067;49.296;14.470;2023-12-28T07:54:01;43;39;
47079;PMS5003;33067;49.296;14.470;2023-12-28T07:56:28;39;37;
47079;PMS5003;33067;49.296;14.470;2023-12-28T07:58:52;64;55;
47079;PMS5003;33067;49.296;14.470;2023-12-28T08:01:17;51;49;
47079;PMS5003;33067;49.296;14.470;2023-12-28T08:03:43;49;46;
47079;PMS5003;33067;49.296;14.470;2023-12-28T08:06:09;64;61;
47079;PMS5003;33067;49.296;14.470;2023-12-28T08:08:34;57;51;
47079;PMS5003;33067;49.296;14.470;2023-12-28T08:11:00;51;44;
47079;PMS5003;33067;49.296;14.470;2023-12-28T08:13:25;51;48;
47079;PMS5003;33067;49.296;14.470;2023-12-28T08:15:51;51;49;
47079;PMS5003;33067;49.296;14.470;2023-12-28T08:18:16;43;40;
47079;PMS5003;33067;49.296;14.470;2023-12-28T08:20:42;53;44;
47079;PMS5003;33067;49.296;14.470;2023-12-28T08:23:07;57;52;
47079;PMS5003;33067;49.296;14.470;2023-12-28T08:25:32;54;46;
47079;PMS5003;33067;49.296;14.470;2023-12-28T08:27:58;57;53;
47079;PMS5003;33067;49.296;14.470;2023-12-28T08:30:24;55;50;
47079;PMS5003;33067;49.296;14.470;2023-12-28T08:32:48;51;49;
47079;PMS5003;33067;49.296;14.470;2023-12-28T08:35:13;59;53;
47079;PMS5003;33067;49.296;14.470;2023-12-28T08:37:40;48;48;
47079;PMS5003;33067;49.296;14.470;2023-12-28T08:40:06;63;57;
47079;PMS5003;33067;49.296;14.470;2023-12-28T08:42:30;46;43;
47079;PMS5003;33067;49.296;14.470;2023-12-28T08:44:55;66;62;
47079;PMS5003;33067;49.296;14.470;2023-12-28T08:47:20;85;82;
47079;PMS5003;33067;49.296;14.470;2023-12-28T08:49:46;121;111;
47079;PMS5003;33067;49.296;14.470;2023-12-28T08:52:11;86;77;
47079;PMS5003;33067;49.296;14.470;2023-12-28T08:54:38;66;59;
47079;PMS5003;33067;49.296;14.470;2023-12-28T08:57:02;56;51;
47079;PMS5003;33067;49.296;14.470;2023-12-28T08:59:29;63;59;
47079;PMS5003;33067;49.296;14.470;2023-12-28T09:01:53;69;64;
47079;PMS5003;33067;49.296;14.470;2023-12-28T09:04:18;57;56;
47079;PMS5003;33067;49.296;14.470;2023-12-28T09:06:44;65;58;
47079;PMS5003;33067;49.296;14.470;2023-12-28T09:09:11;63;61;
47079;PMS5003;33067;49.296;14.470;2023-12-28T09:11:35;64;59;
47079;PMS5003;33067;49.296;14.470;2023-12-28T09:14:00;63;58;
47079;PMS5003;33067;49.296;14.470;2023-12-28T09:16:26;58;53;
47079;PMS5003;33067;49.296;14.470;2023-12-28T09:18:52;56;50;
47079;PMS5003;33067;49.296;14.470;2023-12-28T09:21:17;53;47;
47079;PMS5003;33067;49.296;14.470;2023-12-28T09:23:43;39;35;
47079;PMS5003;33067;49.296;14.470;2023-12-28T09:26:08;48;48;
47079;PMS5003;33067;49.296;14.470;2023-12-28T09:28:34;49;44;
47079;PMS5003;33067;49.296;14.470;2023-12-28T09:30:59;45;39;
47079;PMS5003;33067;49.296;14.470;2023-12-28T09:33:25;39;37;
47079;PMS5003;33067;49.296;14.470;2023-12-28T09:35:51;41;39;
47079;PMS5003;33067;49.296;14.470;2023-12-28T09:38:16;99;99;
47079;PMS5003;33067;49.296;14.470;2023-12-28T09:40:41;68;67;
47079;PMS5003;33067;49.296;14.470;2023-12-28T09:43:08;39;34;
47079;PMS5003;33067;49.296;14.470;2023-12-28T09:45:33;50;47;
47079;PMS5003;33067;49.296;14.470;2023-12-28T09:47:58;49;46;
47079;PMS5003;33067;49.296;14.470;2023-12-28T09:50:23;42;41;
47079;PMS5003;33067;49.296;14.470;2023-12-28T09:52:49;60;60;
47079;PMS5003;33067;49.296;14.470;2023-12-28T09:55:14;43;39;
47079;PMS5003;33067;49.296;14.470;2023-12-28T09:57:40;49;49;
47079;PMS5003;33067;49.296;14.470;2023-12-28T10:00:05;74;71;
47079;PMS5003;33067;49.296;14.470;2023-12-28T10:02:30;80;80;
47079;PMS5003;33067;49.296;14.470;2023-12-28T10:04:55;25;25;
47079;PMS5003;33067;49.296;14.470;2023-12-28T10:07:21;23;22;
47079;PMS5003;33067;49.296;14.470;2023-12-28T10:09:46;21;20;
47079;PMS5003;33067;49.296;14.470;2023-12-28T10:12:11;21;21;
47079;PMS5003;33067;49.296;14.470;2023-12-28T10:14:38;22;20;
47079;PMS5003;33067;49.296;14.470;2023-12-28T10:17:02;16;16;
47079;PMS5003;33067;49.296;14.470;2023-12-28T10:19:28;18;17;
47079;PMS5003;33067;49.296;14.470;2023-12-28T10:21:52;15;12;
47079;PMS5003;33067;49.296;14.470;2023-12-28T10:24:19;17;17;
47079;PMS5003;33067;49.296;14.470;2023-12-28T10:26:43;14;11;
47079;PMS5003;33067;49.296;14.470;2023-12-28T10:29:08;18;15;
47079;PMS5003;33067;49.296;14.470;2023-12-28T10:31:35;17;17;
47079;PMS5003;33067;49.296;14.470;2023-12-28T10:33:58;15;15;
47079;PMS5003;33067;49.296;14.470;2023-12-28T10:36:24;15;13;
47079;PMS5003;33067;49.296;14.470;2023-12-28T10:38:49;16;15;
47079;PMS5003;33067;49.296;14.470;2023-12-28T10:41:15;38;31;
47079;PMS5003;33067;49.296;14.470;2023-12-28T10:43:42;28;25;
47079;PMS5003;33067;49.296;14.470;2023-12-28T10:46:05;39;38;
47079;PMS5003;33067;49.296;14.470;2023-12-28T10:48:32;26;24;
47079;PMS5003;33067;49.296;14.470;2023-12-28T10:50:58;24;20;
47079;PMS5003;33067;49.296;14.470;2023-12-28T10:53:26;25;21;
47079;PMS5003;33067;49.296;14.470;2023-12-28T10:55:48;25;25;
47079;PMS5003;33067;49.296;14.470;2023-12-28T10:58:14;24;20;
47079;PMS5003;33067;49.296;14.470;2023-12-28T11:00:40;18;18;
47079;PMS5003;33067;49.296;14.470;2023-12-28T11:03:03;34;30;
47079;PMS5003;33067;49.296;14.470;2023-12-28T11:05:29;32;26;
47079;PMS5003;33067;49.296;14.470;2023-12-28T11:07:53;26;23;
47079;PMS5003;33067;49.296;14.470;2023-12-28T11:10:19;38;37;
47079;PMS5003;33067;49.296;14.470;2023-12-28T11:12:43;28;28;
47079;PMS5003;33067;49.296;14.470;2023-12-28T11:15:09;100;87;
47079;PMS5003;33067;49.296;14.470;2023-12-28T11:17:34;30;26;
47079;PMS5003;33067;49.296;14.470;2023-12-28T11:20:00;34;29;
47079;PMS5003;33067;49.296;14.470;2023-12-28T11:22:25;27;26;
47079;PMS5003;33067;49.296;14.470;2023-12-28T11:24:52;18;17;
47079;PMS5003;33067;49.296;14.470;2023-12-28T11:27:18;19;16;
47079;PMS5003;33067;49.296;14.470;2023-12-28T11:29:42;20;18;
47079;PMS5003;33067;49.296;14.470;2023-12-28T11:32:06;12;9;
47079;PMS5003;33067;49.296;14.470;2023-12-28T11:34:32;6;6;
47079;PMS5003;33067;49.296;14.470;2023-12-28T11:36:57;6;6;
47079;PMS5003;33067;49.296;14.470;2023-12-28T11:39:29;11;11;
47079;PMS5003;33067;49.296;14.470;2023-12-28T11:41:48;7;7;
47079;PMS5003;33067;49.296;14.470;2023-12-28T11:44:13;16;14;
47079;PMS5003;33067;49.296;14.470;2023-12-28T11:46:39;6;6;
47079;PMS5003;33067;49.296;14.470;2023-12-28T11:49:04;13;13;
47079;PMS5003;33067;49.296;14.470;2023-12-28T11:51:29;6;6;
47079;PMS5003;33067;49.296;14.470;2023-12-28T11:53:54;6;6;
47079;PMS5003;33067;49.296;14.470;2023-12-28T11:56:20;5;5;
47079;PMS5003;33067;49.296;14.470;2023-12-28T11:58:45;6;6;
47079;PMS5003;33067;49.296;14.470;2023-12-28T12:01:10;8;6;
47079;PMS5003;33067;49.296;14.470;2023-12-28T12:03:37;5;4;
47079;PMS5003;33067;49.296;14.470;2023-12-28T12:06:01;4;3;
47079;PMS5003;33067;49.296;14.470;2023-12-28T12:08:26;4;4;
47079;PMS5003;33067;49.296;14.470;2023-12-28T12:13:17;4;4;
47079;PMS5003;33067;49.296;14.470;2023-12-28T12:15:42;4;4;
47079;PMS5003;33067;49.296;14.470;2023-12-28T12:18:07;6;5;
47079;PMS5003;33067;49.296;14.470;2023-12-28T12:20:34;5;4;
47079;PMS5003;33067;49.296;14.470;2023-12-28T12:22:58;5;5;
47079;PMS5003;33067;49.296;14.470;2023-12-28T12:25:23;4;4;
47079;PMS5003;33067;49.296;14.470;2023-12-28T12:27:48;6;5;
47079;PMS5003;33067;49.296;14.470;2023-12-28T12:30:13;5;4;
47079;PMS5003;33067;49.296;14.470;2023-12-28T12:32:39;6;5;
47079;PMS5003;33067;49.296;14.470;2023-12-28T12:35:05;8;8;
47079;PMS5003;33067;49.296;14.470;2023-12-28T12:37:32;10;7;
47079;PMS5003;33067;49.296;14.470;2023-12-28T12:39:56;6;5;
47079;PMS5003;33067;49.296;14.470;2023-12-28T12:42:21;7;7;
47079;PMS5003;33067;49.296;14.470;2023-12-28T12:44:47;10;7;
47079;PMS5003;33067;49.296;14.470;2023-12-28T12:47:12;7;7;
47079;PMS5003;33067;49.296;14.470;2023-12-28T12:49:39;10;6;
47079;PMS5003;33067;49.296;14.470;2023-12-28T12:52:03;10;8;
47079;PMS5003;33067;49.296;14.470;2023-12-28T12:54:28;11;6;
47079;PMS5003;33067;49.296;14.470;2023-12-28T12:56:53;9;9;
47079;PMS5003;33067;49.296;14.470;2023-12-28T12:59:18;13;8;
47079;PMS5003;33067;49.296;14.470;2023-12-28T13:01:44;12;7;
47079;PMS5003;33067;49.296;14.470;2023-12-28T13:04:09;7;7;
47079;PMS5003;33067;49.296;14.470;2023-12-28T13:06:35;12;11;
47079;PMS5003;33067;49.296;14.470;2023-12-28T13:09:00;8;7;
47079;PMS5003;33067;49.296;14.470;2023-12-28T13:11:26;30;26;
47079;PMS5003;33067;49.296;14.470;2023-12-28T13:13:51;5;5;
47079;PMS5003;33067;49.296;14.470;2023-12-28T13:16:16;7;6;
47079;PMS5003;33067;49.296;14.470;2023-12-28T13:18:41;5;5;
47079;PMS5003;33067;49.296;14.470;2023-12-28T13:21:08;11;11;
47079;PMS5003;33067;49.296;14.470;2023-12-28T13:23:33;6;6;
47079;PMS5003;33067;49.296;14.470;2023-12-28T13:25:58;8;8;
47079;PMS5003;33067;49.296;14.470;2023-12-28T13:28:23;7;7;
47079;PMS5003;33067;49.296;14.470;2023-12-28T13:30:49;8;8;
47079;PMS5003;33067;49.296;14.470;2023-12-28T13:33:13;8;8;
47079;PMS5003;33067;49.296;14.470;2023-12-28T13:35:40;9;9;
47079;PMS5003;33067;49.296;14.470;2023-12-28T13:38:04;4;4;
47079;PMS5003;33067;49.296;14.470;2023-12-28T13:40:30;5;5;
47079;PMS5003;33067;49.296;14.470;2023-12-28T13:42:54;6;6;
47079;PMS5003;33067;49.296;14.470;2023-12-28T13:45:21;9;9;
47079;PMS5003;33067;49.296;14.470;2023-12-28T13:47:45;7;7;
47079;PMS5003;33067;49.296;14.470;2023-12-28T13:50:10;8;8;
47079;PMS5003;33067;49.296;14.470;2023-12-28T13:52:36;14;12;
47079;PMS5003;33067;49.296;14.470;2023-12-28T13:55:02;13;11;
47079;PMS5003;33067;49.296;14.470;2023-12-28T13:57:27;8;8;
47079;PMS5003;33067;49.296;14.470;2023-12-28T13:59:52;9;9;
47079;PMS5003;33067;49.296;14.470;2023-12-28T14:02:17;9;7;
47079;PMS5003;33067;49.296;14.470;2023-12-28T14:04:43;14;13;
47079;PMS5003;33067;49.296;14.470;2023-12-28T14:07:09;15;15;
47079;PMS5003;33067;49.296;14.470;2023-12-28T14:09:34;16;16;
47079;PMS5003;33067;49.296;14.470;2023-12-28T14:11:59;31;30;
47079;PMS5003;33067;49.296;14.470;2023-12-28T14:14:26;29;29;
47079;PMS5003;33067;49.296;14.470;2023-12-28T14:16:50;25;20;
47079;PMS5003;33067;49.296;14.470;2023-12-28T14:19:15;15;14;
47079;PMS5003;33067;49.296;14.470;2023-12-28T14:21:41;8;8;
47079;PMS5003;33067;49.296;14.470;2023-12-28T14:24:07;11;11;
47079;PMS5003;33067;49.296;14.470;2023-12-28T14:26:32;23;21;
47079;PMS5003;33067;49.296;14.470;2023-12-28T14:28:57;42;41;
47079;PMS5003;33067;49.296;14.470;2023-12-28T14:31:22;30;29;
47079;PMS5003;33067;49.296;14.470;2023-12-28T14:33:48;14;14;
47079;PMS5003;33067;49.296;14.470;2023-12-28T14:36:16;13;12;
47079;PMS5003;33067;49.296;14.470;2023-12-28T14:38:39;18;15;
47079;PMS5003;33067;49.296;14.470;2023-12-28T14:41:04;13;11;
47079;PMS5003;33067;49.296;14.470;2023-12-28T14:43:29;13;11;
47079;PMS5003;33067;49.296;14.470;2023-12-28T14:45:56;9;7;
47079;PMS5003;33067;49.296;14.470;2023-12-28T14:48:20;17;16;
47079;PMS5003;33067;49.296;14.470;2023-12-28T14:50:46;14;13;
47079;PMS5003;33067;49.296;14.470;2023-12-28T14:53:12;18;17;
47079;PMS5003;33067;49.296;14.470;2023-12-28T14:55:37;15;15;
47079;PMS5003;33067;49.296;14.470;2023-12-28T14:58:03;13;11;
47079;PMS5003;33067;49.296;14.470;2023-12-28T15:00:30;7;7;
47079;PMS5003;33067;49.296;14.470;2023-12-28T15:02:53;13;10;
47079;PMS5003;33067;49.296;14.470;2023-12-28T15:05:21;10;7;
47079;PMS5003;33067;49.296;14.470;2023-12-28T15:07:45;11;11;
47079;PMS5003;33067;49.296;14.470;2023-12-28T15:10:12;10;10;
47079;PMS5003;33067;49.296;14.470;2023-12-28T15:12:35;12;10;
47079;PMS5003;33067;49.296;14.470;2023-12-28T15:15:00;19;19;
47079;PMS5003;33067;49.296;14.470;2023-12-28T15:17:27;18;17;
47079;PMS5003;33067;49.296;14.470;2023-12-28T15:19:53;20;20;
47079;PMS5003;33067;49.296;14.470;2023-12-28T15:22:17;20;18;
47079;PMS5003;33067;49.296;14.470;2023-12-28T15:24:42;6;6;
47079;PMS5003;33067;49.296;14.470;2023-12-28T15:27:09;7;7;
47079;PMS5003;33067;49.296;14.470;2023-12-28T15:29:33;5;5;
47079;PMS5003;33067;49.296;14.470;2023-12-28T15:31:58;7;7;
47079;PMS5003;33067;49.296;14.470;2023-12-28T15:34:23;5;5;
47079;PMS5003;33067;49.296;14.470;2023-12-28T15:36:49;4;4;
47079;PMS5003;33067;49.296;14.470;2023-12-28T15:39:14;5;5;
47079;PMS5003;33067;49.296;14.470;2023-12-28T15:41:40;5;5;
47079;PMS5003;33067;49.296;14.470;2023-12-28T15:44:05;7;6;
47079;PMS5003;33067;49.296;14.470;2023-12-28T15:46:31;18;15;
47079;PMS5003;33067;49.296;14.470;2023-12-28T15:48:55;32;31;
47079;PMS5003;33067;49.296;14.470;2023-12-28T15:51:20;50;49;
47079;PMS5003;33067;49.296;14.470;2023-12-28T15:53:45;32;27;
47079;PMS5003;33067;49.296;14.470;2023-12-28T15:56:10;36;35;
47079;PMS5003;33067;49.296;14.470;2023-12-28T15:58:35;26;22;